createdAt,value
2018-05-25T00:02:25.034Z,76.22
2018-05-25T00:04:57.928Z,76.51
2018-05-25T00:07:32.378Z,76.24
2018-05-25T00:10:05.393Z,75.82
2018-05-25T00:12:37.381Z,76.32
2018-05-25T00:15:09.004Z,76.07
2018-05-25T00:17:44.255Z,76.25
2018-05-25T00:20:16.199Z,76.13
2018-05-25T00:22:49.195Z,75.85
2018-05-25T00:25:22.106Z,75.91
2018-05-25T00:27:53.654Z,75.92
2018-05-25T00:30:25.485Z,75.67
2018-05-25T00:32:58.342Z,76.57
2018-05-25T00:35:31.542Z,76.24
2018-05-25T00:38:03.505Z,76.15
2018-05-25T00:40:36.334Z,76.33
2018-05-25T00:43:09.077Z,76.75
2018-05-25T00:45:39.001Z,76.76
2018-05-25T00:48:09.776Z,76.92
2018-05-25T00:50:42.732Z,76.90
2018-05-25T00:53:15.610Z,76.82
2018-05-25T00:55:47.084Z,77.07
2018-05-25T00:58:18.469Z,77.40
2018-05-25T01:00:52.825Z,77.48
2018-05-25T01:03:25.664Z,77.97
2018-05-25T01:05:58.595Z,77.99
2018-05-25T01:08:30.074Z,78.10
2018-05-25T01:11:01.470Z,77.93
2018-05-25T01:13:35.963Z,78.12
2018-05-25T01:16:07.333Z,78.38
2018-05-25T01:18:39.494Z,78.93
2018-05-25T01:21:13.847Z,78.99
2018-05-25T01:23:45.203Z,79.54
2018-05-25T01:26:18.253Z,79.19
2018-05-25T01:28:49.605Z,79.44
2018-05-25T01:31:21.090Z,79.89
2018-05-25T01:33:51.943Z,79.63
2018-05-25T01:36:23.863Z,79.58
2018-05-25T01:38:55.352Z,79.88
2018-05-25T01:41:26.724Z,80.24
2018-05-25T01:43:59.633Z,80.35
2018-05-25T01:46:32.710Z,80.44
2018-05-25T01:49:05.812Z,80.36
2018-05-25T01:51:37.392Z,80.67
2018-05-25T01:54:07.345Z,80.76
2018-05-25T01:56:38.787Z,80.82
2018-05-25T01:59:13.069Z,81.11
2018-05-25T02:01:44.534Z,81.12
2018-05-25T02:04:18.516Z,80.95
2018-05-25T02:06:52.187Z,81.11
2018-05-25T02:09:26.908Z,81.08
2018-05-25T02:11:59.727Z,81.16
2018-05-25T02:14:33.370Z,81.30
2018-05-25T02:17:06.154Z,81.39
2018-05-25T02:19:37.557Z,81.62
2018-05-25T02:22:09.010Z,81.38
2018-05-25T02:24:41.806Z,82.04
2018-05-25T02:27:13.311Z,82.04
2018-05-25T02:29:45.595Z,82.20
2018-05-25T02:32:20.044Z,82.53
2018-05-25T02:34:52.375Z,82.50
2018-05-25T02:37:25.451Z,82.23
2018-05-25T02:39:57.500Z,82.17
2018-05-25T02:42:27.234Z,82.23
2018-05-25T02:44:58.182Z,82.16
2018-05-25T02:47:31.055Z,81.84
2018-05-25T02:50:04.003Z,82.07
2018-05-25T02:52:38.869Z,82.14
2018-05-25T02:55:11.827Z,82.41
2018-05-25T02:57:44.827Z,82.50
2018-05-25T03:00:18.371Z,82.40
2018-05-25T03:02:50.726Z,82.58
2018-05-25T03:05:25.140Z,82.84
2018-05-25T03:07:55.525Z,82.73
2018-05-25T03:10:25.496Z,82.72
2018-05-25T03:12:56.964Z,82.74
2018-05-25T03:15:28.455Z,83.12
2018-05-25T03:18:00.766Z,83.49
2018-05-25T03:20:33.630Z,83.05
2018-05-25T03:23:05.936Z,82.94
2018-05-25T03:25:39.820Z,83.00
2018-05-25T03:28:11.196Z,82.79
2018-05-25T03:30:45.186Z,82.48
2018-05-25T03:33:18.154Z,82.15
2018-05-25T03:35:51.059Z,82.10
2018-05-25T03:38:22.502Z,81.84
2018-05-25T03:40:51.931Z,81.78
2018-05-25T03:43:26.465Z,81.80
2018-05-25T03:45:57.579Z,81.72
2018-05-25T03:48:28.827Z,81.56
2018-05-25T03:51:01.882Z,81.58
2018-05-25T03:53:36.379Z,81.63
2018-05-25T03:56:07.480Z,82.04
2018-05-25T03:59:15.456Z,81.92
2018-05-25T04:02:03.722Z,81.67
2018-05-25T04:04:38.333Z,81.91
2018-05-25T04:07:11.178Z,81.55
2018-05-25T04:09:42.529Z,81.43
2018-05-25T04:12:13.649Z,80.79
2018-05-25T04:14:46.615Z,80.55
2018-05-25T04:17:17.314Z,80.05
2018-05-25T04:19:50.391Z,79.87
2018-05-25T04:22:21.797Z,78.57
2018-05-25T04:24:53.345Z,76.81
2018-05-25T04:27:27.676Z,75.01
2018-05-25T04:30:00.516Z,73.61
2018-05-25T04:32:33.397Z,72.40
2018-05-25T04:35:04.804Z,71.03
2018-05-25T04:37:36.256Z,70.40
2018-05-25T04:40:09.180Z,68.27
2018-05-25T04:42:41.198Z,67.04
2018-05-25T04:45:14.038Z,65.43
2018-05-25T04:47:46.896Z,65.57
2018-05-25T04:50:18.472Z,64.78
2018-05-25T04:52:51.264Z,63.07
2018-05-25T04:55:23.229Z,61.69
2018-05-25T04:57:57.433Z,65.05
2018-05-25T05:00:30.295Z,60.46
2018-05-25T05:03:01.616Z,62.32
2018-05-25T05:05:33.562Z,60.87
2018-05-25T05:08:03.680Z,60.98
2018-05-25T05:10:36.939Z,59.99
2018-05-25T05:13:10.368Z,60.84
2018-05-25T05:15:41.104Z,56.58
2018-05-25T05:18:13.838Z,57.02
2018-05-25T05:20:46.123Z,58.33
2018-05-25T05:23:20.507Z,58.31
2018-05-25T05:25:53.345Z,59.31
2018-05-25T05:28:26.218Z,59.42
2018-05-25T05:30:58.963Z,57.55
2018-05-25T05:33:28.903Z,57.42
2018-05-25T05:36:01.739Z,55.94
2018-05-25T05:38:34.658Z,59.67
2018-05-25T05:41:07.363Z,59.64
2018-05-25T05:43:38.733Z,65.63
2018-05-25T05:46:09.856Z,60.65
2018-05-25T05:48:40.507Z,59.13
2018-05-25T05:51:13.695Z,56.30
2018-05-25T05:53:46.424Z,55.62
2018-05-25T05:56:19.183Z,56.32
2018-05-25T05:58:49.056Z,55.52
2018-05-25T06:01:21.421Z,57.82
2018-05-25T06:03:56.227Z,53.59
2018-05-25T06:06:29.065Z,55.94
2018-05-25T06:09:00.624Z,59.02
2018-05-25T06:11:33.511Z,53.07
2018-05-25T06:14:08.137Z,53.33
2018-05-25T06:16:40.515Z,53.71
2018-05-25T06:19:13.570Z,58.48
2018-05-25T06:21:47.913Z,57.15
2018-05-25T06:24:22.251Z,53.78
2018-05-25T06:26:56.033Z,52.82
2018-05-25T06:29:29.703Z,52.21
2018-05-25T06:32:02.740Z,51.54
2018-05-25T06:34:36.396Z,54.58
2018-05-25T06:37:11.843Z,50.29
2018-05-25T06:39:41.116Z,53.07
2018-05-25T06:42:13.942Z,51.71
2018-05-25T06:44:45.717Z,55.19
2018-05-25T06:47:20.361Z,58.22
2018-05-25T06:49:54.010Z,58.45
2018-05-25T06:52:27.086Z,57.25
2018-05-25T06:54:58.388Z,55.86
2018-05-25T06:57:30.179Z,57.13
2018-05-25T07:00:01.643Z,55.17
2018-05-25T07:02:34.560Z,55.10
2018-05-25T07:05:09.121Z,55.56
2018-05-25T07:07:41.403Z,56.62
2018-05-25T07:10:14.204Z,54.76
2018-05-25T07:12:47.327Z,53.02
2018-05-25T07:15:21.644Z,49.60
2018-05-25T07:17:53.228Z,50.32
2018-05-25T07:20:24.702Z,50.79
2018-05-25T07:22:59.246Z,49.09
2018-05-25T07:25:31.994Z,44.79
2018-05-25T07:28:03.412Z,43.65
2018-05-25T07:30:38.497Z,46.01
2018-05-25T07:33:11.264Z,41.52
2018-05-25T07:35:41.690Z,42.10
2018-05-25T07:38:13.531Z,42.71
2018-05-25T07:40:46.416Z,40.45
2018-05-25T07:43:18.576Z,42.51
2018-05-25T07:45:50.435Z,44.10
2018-05-25T07:48:20.419Z,43.23
2018-05-25T07:50:51.724Z,42.66
2018-05-25T07:53:24.115Z,44.35
2018-05-25T07:55:55.602Z,44.11
2018-05-25T07:58:29.981Z,42.39
2018-05-25T08:01:01.436Z,43.29
2018-05-25T08:03:34.187Z,47.06
2018-05-25T08:06:05.476Z,42.89
2018-05-25T08:08:36.717Z,41.73
2018-05-25T08:11:10.936Z,44.49
2018-05-25T08:13:42.243Z,42.83
2018-05-25T08:16:15.131Z,39.44
2018-05-25T08:18:45.741Z,41.50
2018-05-25T08:21:18.463Z,40.28
2018-05-25T08:23:52.690Z,42.35
2018-05-25T08:26:23.549Z,43.39
2018-05-25T08:28:53.480Z,42.90
2018-05-25T08:31:26.292Z,40.69
2018-05-25T08:33:59.128Z,39.70
2018-05-25T08:36:31.984Z,41.63
2018-05-25T08:39:03.372Z,40.60
2018-05-25T08:41:35.233Z,40.15
2018-05-25T08:44:09.529Z,39.85
2018-05-25T08:46:39.480Z,38.58
2018-05-25T08:49:14.723Z,40.77
2018-05-25T08:51:47.543Z,40.49
2018-05-25T08:54:19.623Z,36.57
2018-05-25T08:56:51.583Z,40.33
2018-05-25T08:59:25.774Z,40.74
2018-05-25T09:01:58.618Z,39.72
2018-05-25T09:04:30.124Z,43.30
2018-05-25T09:07:01.492Z,41.91
2018-05-25T09:09:31.384Z,40.27
2018-05-25T09:12:01.987Z,40.29
2018-05-25T09:14:35.207Z,37.55
2018-05-25T09:17:07.972Z,39.11
2018-05-25T09:19:37.881Z,35.56
2018-05-25T09:22:09.800Z,36.81
2018-05-25T09:24:41.123Z,37.68
2018-05-25T09:27:10.976Z,41.75
2018-05-25T09:29:42.109Z,37.27
2018-05-25T09:32:15.554Z,35.69
2018-05-25T09:34:46.087Z,36.75
2018-05-25T09:37:19.205Z,38.99
2018-05-25T09:39:49.748Z,40.41
2018-05-25T09:42:22.480Z,38.98
2018-05-25T09:44:55.777Z,40.37
2018-05-25T09:47:26.530Z,40.46
2018-05-25T09:50:00.361Z,38.55
2018-05-25T09:52:31.527Z,36.74
2018-05-25T09:55:03.641Z,37.90
2018-05-25T09:57:34.917Z,38.95
2018-05-25T10:00:09.234Z,41.68
2018-05-25T10:02:40.345Z,42.24
2018-05-25T10:05:12.145Z,38.83
2018-05-25T10:07:43.977Z,37.70
2018-05-25T10:10:16.723Z,38.79
2018-05-25T10:12:49.571Z,42.15
2018-05-25T10:15:23.873Z,40.57
2018-05-25T10:17:56.816Z,41.34
2018-05-25T10:20:28.403Z,37.03
2018-05-25T10:22:58.269Z,39.73
2018-05-25T10:25:31.925Z,38.16
2018-05-25T10:28:01.821Z,38.50
2018-05-25T10:30:31.158Z,40.03
2018-05-25T10:33:05.352Z,37.78
2018-05-25T10:35:36.648Z,37.09
2018-05-25T10:38:11.001Z,39.33
2018-05-25T10:40:42.392Z,39.31
2018-05-25T10:43:16.689Z,38.94
2018-05-25T10:45:51.191Z,39.65
2018-05-25T10:48:22.659Z,41.19
2018-05-25T10:50:52.539Z,37.22
2018-05-25T10:53:25.510Z,38.41
2018-05-25T10:55:56.998Z,40.47
2018-05-25T10:58:28.416Z,37.29
2018-05-25T11:01:01.197Z,37.88
2018-05-25T11:03:32.348Z,36.46
2018-05-25T11:06:02.220Z,39.23
2018-05-25T11:08:33.559Z,42.25
2018-05-25T11:11:05.267Z,40.83
2018-05-25T11:13:39.514Z,39.64
2018-05-25T11:16:10.913Z,40.23
2018-05-25T11:18:42.279Z,40.23
2018-05-25T11:21:14.396Z,40.11
2018-05-25T11:23:45.974Z,38.74
2018-05-25T11:26:18.785Z,40.05
2018-05-25T11:28:49.372Z,42.47
2018-05-25T11:31:20.403Z,43.02
2018-05-25T11:33:51.768Z,40.84
2018-05-25T11:36:24.870Z,38.46
2018-05-25T11:38:56.760Z,36.87
2018-05-25T11:41:28.122Z,37.29
2018-05-25T11:44:00.450Z,36.35
2018-05-25T11:46:31.996Z,35.67
2018-05-25T11:49:01.600Z,39.48
2018-05-25T11:51:33.054Z,36.78
2018-05-25T11:54:04.554Z,39.31
2018-05-25T11:56:37.507Z,40.49
2018-05-25T11:59:12.122Z,38.25
2018-05-25T12:01:43.996Z,38.06
2018-05-25T12:04:14.584Z,44.59
2018-05-25T12:06:46.868Z,38.72
2018-05-25T12:09:17.277Z,40.50
2018-05-25T12:11:50.091Z,40.18
2018-05-25T12:14:20.460Z,44.03
2018-05-25T12:16:50.001Z,39.20
2018-05-25T12:19:22.860Z,43.30
2018-05-25T12:21:52.685Z,41.09
2018-05-25T12:24:23.287Z,41.04
2018-05-25T12:26:55.063Z,38.82
2018-05-25T12:29:30.336Z,42.75
2018-05-25T12:32:01.689Z,40.81
2018-05-25T12:34:33.485Z,44.36
2018-05-25T12:37:06.277Z,41.31
2018-05-25T12:39:38.995Z,43.01
2018-05-25T12:42:13.298Z,44.13
2018-05-25T12:45:15.733Z,40.97
2018-05-25T12:47:47.113Z,39.63
2018-05-25T12:50:19.121Z,39.35
2018-05-25T12:52:50.722Z,43.81
2018-05-25T12:55:24.076Z,42.50
2018-05-25T12:57:53.282Z,40.92
2018-05-25T13:00:26.238Z,40.95
2018-05-25T13:02:55.461Z,41.62
2018-05-25T13:05:26.852Z,41.85
2018-05-25T13:07:58.171Z,44.83
2018-05-25T13:10:32.733Z,46.72
2018-05-25T13:13:04.049Z,46.02
2018-05-25T13:15:37.779Z,42.05
2018-05-25T13:18:09.250Z,42.38
2018-05-25T13:20:41.323Z,43.36
2018-05-25T13:23:14.182Z,42.03
2018-05-25T13:25:46.156Z,41.70
2018-05-25T13:28:19.904Z,39.87
2018-05-25T13:30:54.580Z,41.46
2018-05-25T13:33:27.344Z,42.01
2018-05-25T13:35:58.773Z,42.58
2018-05-25T13:38:28.949Z,43.88
2018-05-25T13:41:01.789Z,41.17
2018-05-25T13:43:33.277Z,42.36
2018-05-25T13:46:07.543Z,42.91
2018-05-25T13:48:40.427Z,41.62
2018-05-25T13:51:13.281Z,41.03
2018-05-25T13:53:44.658Z,39.39
2018-05-25T13:56:17.405Z,41.76
2018-05-25T13:58:48.483Z,45.40
2018-05-25T14:01:21.319Z,42.43
2018-05-25T14:03:54.198Z,43.36
2018-05-25T14:06:27.207Z,43.85
2018-05-25T14:08:57.864Z,45.69
2018-05-25T14:11:30.870Z,43.82
2018-05-25T14:14:05.483Z,42.33
2018-05-25T14:16:37.598Z,43.23
2018-05-25T14:19:08.971Z,41.87
2018-05-25T14:21:39.378Z,42.17
2018-05-25T14:24:13.986Z,40.07
2018-05-25T14:26:45.663Z,41.42
2018-05-25T14:29:17.745Z,43.48
2018-05-25T14:31:49.676Z,43.82
2018-05-25T14:34:23.248Z,45.32
2018-05-25T14:36:56.042Z,42.88
2018-05-25T14:39:27.930Z,43.68
2018-05-25T14:42:00.128Z,44.08
2018-05-25T14:44:31.552Z,43.04
2018-05-25T14:47:04.477Z,41.51
2018-05-25T14:49:38.513Z,41.41
2018-05-25T14:52:10.856Z,41.87
2018-05-25T14:54:43.797Z,42.89
2018-05-25T14:57:17.006Z,43.60
2018-05-25T14:59:50.318Z,40.09
2018-05-25T15:02:20.224Z,40.95
2018-05-25T15:04:51.615Z,40.06
2018-05-25T15:07:22.998Z,41.97
2018-05-25T15:09:54.399Z,40.24
2018-05-25T15:12:25.719Z,42.16
2018-05-25T15:14:57.452Z,40.56
2018-05-25T15:17:29.490Z,41.72
2018-05-25T15:20:00.846Z,39.10
2018-05-25T15:22:31.416Z,40.21
2018-05-25T15:25:04.603Z,42.53
2018-05-25T15:27:35.928Z,42.86
2018-05-25T15:30:09.199Z,43.86
2018-05-25T15:32:42.210Z,42.30
2018-05-25T15:35:15.233Z,42.98
2018-05-25T15:37:48.034Z,42.51
2018-05-25T15:40:21.150Z,44.10
2018-05-25T15:42:53.920Z,45.56
2018-05-25T15:45:23.817Z,48.05
2018-05-25T15:47:56.675Z,48.02
2018-05-25T15:50:28.275Z,45.47
2018-05-25T15:53:01.078Z,43.23
2018-05-25T15:55:32.537Z,43.93
2018-05-25T15:58:03.980Z,43.65
2018-05-25T16:00:35.390Z,43.50
2018-05-25T16:03:05.809Z,44.87
2018-05-25T16:05:37.313Z,43.50
2018-05-25T16:08:09.475Z,43.87
2018-05-25T16:10:44.103Z,44.81
2018-05-25T16:13:18.512Z,43.75
2018-05-25T16:15:52.051Z,40.09
2018-05-25T16:18:23.471Z,41.20
2018-05-25T16:20:54.808Z,41.83
2018-05-25T16:23:26.186Z,43.88
2018-05-25T16:25:57.486Z,47.26
2018-05-25T16:28:28.913Z,46.43
2018-05-25T16:31:00.840Z,48.42
2018-05-25T16:33:31.397Z,45.45
2018-05-25T16:36:03.685Z,46.12
2018-05-25T16:38:35.076Z,45.70
2018-05-25T16:41:07.993Z,47.79
2018-05-25T16:43:42.460Z,47.50
2018-05-25T16:46:13.824Z,45.06
2018-05-25T16:48:44.207Z,46.36
2018-05-25T16:51:15.980Z,44.66
2018-05-25T16:53:48.819Z,45.81
2018-05-25T16:56:21.943Z,46.45
2018-05-25T16:58:54.901Z,46.08
2018-05-25T17:01:26.783Z,45.85
2018-05-25T17:03:58.210Z,46.55
2018-05-25T17:06:29.639Z,45.80
2018-05-25T17:09:01.074Z,46.33
2018-05-25T17:11:34.245Z,45.19
2018-05-25T17:14:07.033Z,45.20
2018-05-25T17:16:38.416Z,45.29
2018-05-25T17:19:08.650Z,45.98
2018-05-25T17:21:43.058Z,45.86
2018-05-25T17:24:14.487Z,46.78
2018-05-25T17:26:47.344Z,48.12
2018-05-25T17:29:18.853Z,46.82
2018-05-25T17:31:51.839Z,47.31
2018-05-25T17:34:24.277Z,45.96
2018-05-25T17:36:55.657Z,47.79
2018-05-25T17:39:28.197Z,46.79
2018-05-25T17:41:58.886Z,47.71
2018-05-25T17:44:30.710Z,46.95
2018-05-25T17:47:02.081Z,46.60
2018-05-25T17:49:33.809Z,48.61
2018-05-25T17:52:05.128Z,48.64
2018-05-25T17:54:37.738Z,46.63
2018-05-25T17:57:10.560Z,47.38
2018-05-25T17:59:45.041Z,46.87
2018-05-25T18:02:17.902Z,47.71
2018-05-25T18:04:50.186Z,49.04
2018-05-25T18:07:23.469Z,50.44
2018-05-25T18:09:56.499Z,52.08
2018-05-25T18:12:30.841Z,52.25
2018-05-25T18:15:03.186Z,52.77
2018-05-25T18:17:34.519Z,52.49
2018-05-25T18:20:04.396Z,53.87
2018-05-25T18:22:33.590Z,53.35
2018-05-25T18:25:06.393Z,52.71
2018-05-25T18:27:37.495Z,53.33
2018-05-25T18:30:10.729Z,52.76
2018-05-25T18:32:43.555Z,53.11
2018-05-25T18:35:18.906Z,53.22
2018-05-25T18:37:50.311Z,53.18
2018-05-25T18:40:22.243Z,53.34
2018-05-25T18:42:54.486Z,51.84
2018-05-25T18:45:27.217Z,51.05
2018-05-25T18:47:58.685Z,52.07
2018-05-25T18:50:30.213Z,52.47
2018-05-25T18:53:02.946Z,52.83
2018-05-25T18:55:33.573Z,53.74
2018-05-25T18:58:07.956Z,53.74
2018-05-25T19:00:40.738Z,54.28
2018-05-25T19:03:13.939Z,55.36
2018-05-25T19:05:43.927Z,55.75
2018-05-25T19:08:16.019Z,54.45
2018-05-25T19:10:47.813Z,54.73
2018-05-25T19:13:17.947Z,55.17
2018-05-25T19:15:50.896Z,55.49
2018-05-25T19:18:22.529Z,55.82
2018-05-25T19:20:53.184Z,56.16
2018-05-25T19:23:26.762Z,56.71
2018-05-25T19:25:58.461Z,56.26
2018-05-25T19:28:32.903Z,56.66
2018-05-25T19:31:04.083Z,57.33
2018-05-25T19:33:35.354Z,57.75
2018-05-25T19:36:08.361Z,58.04
2018-05-25T19:38:40.128Z,58.89
2018-05-25T19:41:13.004Z,59.78
2018-05-25T19:43:44.557Z,61.14
2018-05-25T19:46:18.920Z,60.38
2018-05-25T19:48:50.489Z,60.47
2018-05-25T19:51:23.270Z,60.43
2018-05-25T19:53:56.346Z,61.02
2018-05-25T19:56:29.174Z,61.27
2018-05-25T19:59:01.226Z,61.42
2018-05-25T20:01:34.296Z,61.27
2018-05-25T20:04:07.040Z,60.93
2018-05-25T20:06:37.075Z,61.27
2018-05-25T20:09:10.523Z,61.71
2018-05-25T20:11:43.354Z,61.49
2018-05-25T20:14:14.928Z,60.98
2018-05-25T20:16:46.324Z,60.92
2018-05-25T20:19:16.768Z,61.47
2018-05-25T20:21:47.227Z,62.56
2018-05-25T20:24:17.539Z,62.82
2018-05-25T20:26:49.014Z,63.51
2018-05-25T20:29:20.935Z,63.56
2018-05-25T20:31:50.932Z,63.42
2018-05-25T20:34:22.950Z,63.53
2018-05-25T20:36:52.873Z,63.54
2018-05-25T20:39:25.045Z,65.00
2018-05-25T20:41:56.864Z,65.84
2018-05-25T20:44:27.465Z,65.80
2018-05-25T20:47:00.075Z,65.45
2018-05-25T20:49:31.581Z,65.71
2018-05-25T20:52:04.552Z,65.28
2018-05-25T20:54:34.405Z,65.20
2018-05-25T20:57:05.338Z,66.41
2018-05-25T20:59:38.306Z,67.44
2018-05-25T21:02:10.157Z,67.62
2018-05-25T21:04:41.745Z,68.14
2018-05-25T21:07:11.989Z,67.89
2018-05-25T21:09:43.444Z,69.68
2018-05-25T21:12:14.206Z,69.47
2018-05-25T21:14:46.081Z,69.04
2018-05-25T21:17:20.548Z,70.38
2018-05-25T21:19:55.225Z,69.80
2018-05-25T21:22:28.103Z,69.16
2018-05-25T21:25:00.621Z,69.29
2018-05-25T21:27:31.970Z,68.59
2018-05-25T21:30:02.658Z,68.54
2018-05-25T21:32:35.736Z,68.26
2018-05-25T21:35:08.634Z,68.64
2018-05-25T21:37:42.167Z,68.83
2018-05-25T21:40:13.855Z,68.44
2018-05-25T21:42:46.206Z,67.61
2018-05-25T21:45:17.915Z,68.03
2018-05-25T21:47:47.415Z,67.88
2018-05-25T21:50:20.319Z,68.04
2018-05-25T21:52:51.721Z,68.56
2018-05-25T21:55:26.122Z,69.00
2018-05-25T21:58:00.047Z,68.45
2018-05-25T22:00:33.149Z,68.75
2018-05-25T22:03:04.536Z,68.63
2018-05-25T22:05:37.759Z,68.50
2018-05-25T22:08:10.803Z,68.30
2018-05-25T22:10:42.007Z,68.14
2018-05-25T22:13:13.383Z,68.12
2018-05-25T22:15:46.424Z,68.05
2018-05-25T22:18:17.127Z,68.51
2018-05-25T22:20:50.186Z,68.35
2018-05-25T22:23:20.046Z,68.30
2018-05-25T22:25:52.201Z,68.64
2018-05-25T22:28:25.102Z,68.64
2018-05-25T22:30:57.956Z,68.79
2018-05-25T22:33:29.375Z,68.87
2018-05-25T22:35:59.205Z,68.85
2018-05-25T22:38:33.515Z,68.81
2018-05-25T22:41:07.894Z,69.12
2018-05-25T22:44:15.487Z,69.09
2018-05-25T22:47:22.752Z,69.52
2018-05-25T22:50:30.235Z,70.33
2018-05-25T22:53:16.507Z,71.03
2018-05-25T22:55:49.295Z,71.70
2018-05-25T22:58:20.954Z,71.61
2018-05-25T23:00:52.374Z,71.29
2018-05-25T23:03:23.423Z,71.34
2018-05-25T23:05:55.731Z,71.35
2018-05-25T23:08:29.338Z,71.56
2018-05-25T23:11:02.147Z,71.37
2018-05-25T23:13:33.516Z,71.40
2018-05-25T23:16:05.884Z,71.29
2018-05-25T23:18:37.286Z,71.52
2018-05-25T23:21:08.824Z,71.58
2018-05-25T23:23:40.053Z,71.57
2018-05-25T23:26:13.609Z,71.72
2018-05-25T23:28:46.422Z,71.68
2018-05-25T23:31:15.643Z,71.72
2018-05-25T23:33:48.475Z,71.79
2018-05-25T23:36:19.821Z,71.92
2018-05-25T23:38:52.754Z,72.06
2018-05-25T23:41:24.116Z,71.99
2018-05-25T23:43:55.432Z,72.00
2018-05-25T23:46:28.356Z,72.37
2018-05-25T23:49:01.279Z,72.43
2018-05-25T23:51:34.437Z,72.64
2018-05-25T23:54:07.190Z,72.75
2018-05-25T23:56:41.543Z,72.69
2018-05-25T23:59:12.949Z,72.83
